X  CloseMetar Aviation Weather Data     KABQ Albuquerque International Sunport

Temperature

36°F Temperature

28°F Dewpoint

75% Humidity



Wind

 5 MPH

 8 KM/H

 2 M/S

 4 KTS



330°
NNWdir
Current Conditions

Clear Clear
Pressure 1021.02 (hPa) - 30.15 (in)
Visibility 10 (mi) - 16.1 (km)
Airport
Airport-code KABQ

Location Albuquerque International Sunport 16 (mi)

Metar:
KABQ 231052Z 33004KT 10SM CLR 02/M02 A3015 RMK AO2 SLP200 T00171022

Time: 01-23-2020 3:52